createdAt,value
2022-08-22T00:00:27.684Z,11.85
2022-08-22T00:01:32.163Z,9.98
2022-08-22T00:02:36.720Z,15.71
2022-08-22T00:02:43.675Z,14.34
2022-08-22T00:02:46.944Z,12.34
2022-08-22T00:02:47.240Z,10.04
2022-08-22T00:02:55.977Z,16.27
2022-08-22T00:02:57.787Z,11.65
2022-08-22T00:02:59.905Z,10.24
2022-08-22T00:03:06.868Z,9.59
2022-08-22T00:03:08.817Z,13.45
2022-08-22T00:03:41.190Z,18.29
2022-08-22T00:04:44.295Z,15.05
2022-08-22T00:05:46.872Z,13.17
2022-08-22T00:06:50.003Z,12.99
2022-08-22T00:07:52.711Z,15.46
2022-08-22T00:08:55.556Z,17.29
2022-08-22T00:09:58.258Z,26.51
2022-08-22T00:11:01.020Z,18.09
2022-08-22T00:12:03.592Z,23.43
2022-08-22T00:13:06.435Z,16.82
2022-08-22T00:14:09.008Z,11.05
2022-08-22T00:15:16.393Z,15.41
2022-08-22T00:16:16.693Z,14.43
2022-08-22T00:17:19.460Z,14.31
2022-08-22T00:18:22.132Z,11.57
2022-08-22T00:19:24.722Z,18.16
2022-08-22T00:20:28.238Z,26.11
2022-08-22T00:21:31.173Z,18.35
2022-08-22T00:22:33.832Z,13.43
2022-08-22T00:23:36.509Z,20.29
2022-08-22T00:24:39.172Z,17.78
2022-08-22T00:25:41.787Z,23.37
2022-08-22T00:26:45.571Z,11.71
2022-08-22T00:27:48.467Z,22.91
2022-08-22T00:28:51.075Z,21.70
2022-08-22T00:29:53.856Z,14.14
2022-08-22T00:30:56.823Z,18.33
2022-08-22T00:31:59.450Z,15.41
2022-08-22T00:33:03.085Z,18.25
2022-08-22T00:34:05.959Z,9.15
2022-08-22T00:35:08.524Z,15.69
2022-08-22T00:36:12.278Z,12.19
2022-08-22T00:37:14.929Z,11.99
2022-08-22T00:38:18.377Z,18.23
2022-08-22T00:39:21.462Z,13.72
2022-08-22T00:40:25.500Z,13.42
2022-08-22T00:41:30.085Z,9.73
2022-08-22T00:42:33.053Z,17.78
2022-08-22T00:43:36.660Z,25.88
2022-08-22T00:44:39.549Z,22.60
2022-08-22T00:45:42.140Z,17.75
2022-08-22T00:46:45.163Z,16.84
2022-08-22T00:47:48.179Z,23.66
2022-08-22T00:48:50.776Z,29.64
2022-08-22T00:49:53.375Z,18.15
2022-08-22T00:50:56.475Z,19.21
2022-08-22T00:51:59.119Z,24.69
2022-08-22T00:53:01.729Z,15.20
2022-08-22T00:54:04.255Z,10.85
2022-08-22T00:55:08.767Z,15.11
2022-08-22T00:56:11.647Z,14.54
2022-08-22T00:57:14.277Z,25.03
2022-08-22T00:58:16.977Z,20.20
2022-08-22T00:59:23.638Z,16.43
2022-08-22T01:00:24.472Z,21.02
2022-08-22T01:01:27.337Z,18.10
2022-08-22T01:02:30.223Z,29.61
2022-08-22T01:03:33.111Z,22.09
2022-08-22T01:04:35.680Z,21.09
2022-08-22T01:05:40.904Z,11.97
2022-08-22T01:06:43.881Z,29.08
2022-08-22T01:07:46.836Z,19.85
2022-08-22T01:08:49.520Z,13.60
2022-08-22T01:09:52.032Z,22.30
2022-08-22T01:10:55.180Z,15.91
2022-08-22T01:11:57.820Z,30.47
2022-08-22T01:13:00.700Z,17.66
2022-08-22T01:14:03.259Z,7.93
2022-08-22T01:15:05.860Z,22.07
2022-08-22T01:16:08.704Z,18.07
2022-08-22T01:17:11.779Z,23.58
2022-08-22T01:18:14.764Z,16.19
2022-08-22T01:19:17.336Z,22.19
2022-08-22T01:20:21.842Z,21.81
2022-08-22T01:21:24.623Z,23.03
2022-08-22T01:22:27.276Z,17.59
2022-08-22T01:23:30.364Z,31.57
2022-08-22T01:24:33.028Z,20.27
2022-08-22T01:25:36.307Z,19.94
2022-08-22T01:26:41.748Z,27.29
2022-08-22T01:27:45.952Z,16.35
2022-08-22T01:28:48.517Z,20.48
2022-08-22T01:29:51.492Z,14.39
2022-08-22T01:30:54.430Z,17.18
2022-08-22T01:31:57.055Z,13.15
2022-08-22T01:32:59.633Z,19.41
2022-08-22T01:34:02.171Z,20.75
2022-08-22T01:35:04.740Z,15.45
2022-08-22T01:36:07.815Z,23.11
2022-08-22T01:37:10.380Z,20.01
2022-08-22T01:38:12.949Z,28.86
2022-08-22T01:39:15.532Z,19.71
2022-08-22T01:40:18.848Z,21.69
2022-08-22T01:41:22.655Z,29.36
2022-08-22T01:42:25.280Z,23.75
2022-08-22T01:43:58.579Z,27.26
2022-08-22T01:44:32.359Z,23.22
2022-08-22T01:45:34.916Z,13.21
2022-08-22T01:46:37.725Z,13.71
2022-08-22T01:47:43.012Z,14.97
2022-08-22T01:48:45.680Z,20.10
2022-08-22T01:49:50.200Z,24.55
2022-08-22T01:50:53.174Z,14.39
2022-08-22T01:51:55.843Z,13.98
2022-08-22T01:52:58.408Z,18.62
2022-08-22T01:54:01.100Z,16.97
2022-08-22T01:55:03.616Z,18.92
2022-08-22T01:56:06.411Z,21.39
2022-08-22T01:57:08.988Z,18.95
2022-08-22T01:58:11.648Z,18.00
2022-08-22T01:59:14.215Z,26.05
2022-08-22T02:00:20.573Z,25.48
2022-08-22T02:01:25.679Z,31.04
2022-08-22T02:02:28.369Z,24.18
2022-08-22T02:03:31.037Z,17.47
2022-08-22T02:04:33.609Z,22.88
2022-08-22T02:05:36.275Z,19.81
2022-08-22T02:06:39.316Z,21.98
2022-08-22T02:07:41.915Z,18.43
2022-08-22T02:08:44.485Z,19.61
2022-08-22T02:09:47.476Z,16.62
2022-08-22T02:10:50.651Z,11.28
2022-08-22T02:11:53.328Z,17.12
2022-08-22T02:12:55.990Z,20.69
2022-08-22T02:13:58.651Z,27.46
2022-08-22T02:15:01.216Z,19.68
2022-08-22T02:16:04.092Z,22.39
2022-08-22T02:17:06.668Z,19.61
2022-08-22T02:18:09.224Z,16.40
2022-08-22T02:19:11.793Z,30.21
2022-08-22T02:20:16.210Z,20.67
2022-08-22T02:21:20.926Z,27.21
2022-08-22T02:22:23.592Z,23.02
2022-08-22T02:23:27.593Z,21.19
2022-08-22T02:24:30.292Z,16.58
2022-08-22T02:25:32.836Z,16.07
2022-08-22T02:26:36.010Z,29.27
2022-08-22T02:27:38.586Z,22.17
2022-08-22T02:28:57.422Z,22.77
2022-08-22T02:29:45.653Z,29.85
2022-08-22T02:30:48.735Z,22.95
2022-08-22T02:31:51.501Z,28.64
2022-08-22T02:32:54.068Z,29.75
2022-08-22T02:33:56.635Z,25.69
2022-08-22T02:34:59.132Z,18.97
2022-08-22T02:36:01.770Z,25.54
2022-08-22T02:37:04.343Z,18.97
2022-08-22T02:38:07.011Z,24.31
2022-08-22T02:39:09.636Z,27.83
2022-08-22T02:40:13.428Z,23.96
2022-08-22T02:41:18.551Z,19.85
2022-08-22T02:42:21.163Z,20.56
2022-08-22T02:43:24.100Z,26.54
2022-08-22T02:44:26.840Z,19.41
2022-08-22T02:45:29.376Z,24.18
2022-08-22T02:46:32.456Z,21.23
2022-08-22T02:47:35.031Z,13.31
2022-08-22T02:48:37.792Z,24.31
2022-08-22T02:49:43.666Z,32.53
2022-08-22T02:50:44.974Z,25.25
2022-08-22T02:51:47.543Z,24.29
2022-08-22T02:52:50.231Z,21.59
2022-08-22T02:53:52.782Z,27.49
2022-08-22T02:54:55.651Z,22.11
2022-08-22T02:55:58.219Z,19.65
2022-08-22T02:57:00.991Z,21.78
2022-08-22T02:58:04.845Z,33.11
2022-08-22T02:59:07.556Z,19.37
2022-08-22T03:00:31.448Z,24.76
2022-08-22T03:01:15.099Z,37.31
2022-08-22T03:02:17.716Z,24.60
2022-08-22T03:03:20.383Z,20.21
2022-08-22T03:04:23.012Z,17.57
2022-08-22T03:05:25.735Z,21.12
2022-08-22T03:06:29.523Z,21.50
2022-08-22T03:07:32.191Z,19.21
2022-08-22T03:08:35.566Z,28.55
2022-08-22T03:09:38.554Z,18.35
2022-08-22T03:10:41.530Z,27.49
2022-08-22T03:11:44.016Z,21.30
2022-08-22T03:12:46.495Z,22.73
2022-08-22T03:13:49.022Z,22.76
2022-08-22T03:14:51.591Z,18.21
2022-08-22T03:15:54.161Z,17.91
2022-08-22T03:16:57.192Z,20.67
2022-08-22T03:18:00.140Z,14.78
2022-08-22T03:19:02.987Z,24.82
2022-08-22T03:20:06.254Z,19.67
2022-08-22T03:21:09.098Z,33.13
2022-08-22T03:22:11.810Z,18.08
2022-08-22T03:23:14.478Z,14.00
2022-08-22T03:24:17.047Z,21.34
2022-08-22T03:25:19.676Z,18.61
2022-08-22T03:26:23.126Z,20.33
2022-08-22T03:27:32.784Z,17.62
2022-08-22T03:28:30.071Z,13.76
2022-08-22T03:29:32.644Z,20.62
2022-08-22T03:30:35.622Z,16.62
2022-08-22T03:31:38.204Z,25.75
2022-08-22T03:32:41.093Z,15.38
2022-08-22T03:33:43.631Z,22.91
2022-08-22T03:34:46.199Z,21.57
2022-08-22T03:35:48.763Z,18.07
2022-08-22T03:36:51.639Z,24.34
2022-08-22T03:37:54.207Z,29.20
2022-08-22T03:38:56.727Z,24.46
2022-08-22T03:39:59.386Z,17.59
2022-08-22T03:41:02.622Z,25.48
2022-08-22T03:42:05.214Z,19.61
2022-08-22T03:43:07.754Z,20.80
2022-08-22T03:44:10.327Z,18.25
2022-08-22T03:45:12.990Z,17.37
2022-08-22T03:46:18.284Z,17.18
2022-08-22T03:47:20.479Z,20.72
2022-08-22T03:48:23.045Z,18.77
2022-08-22T03:49:25.627Z,25.16
2022-08-22T03:50:29.104Z,21.66
2022-08-22T03:51:31.672Z,27.39
2022-08-22T03:52:34.165Z,11.33
2022-08-22T03:53:36.803Z,19.41
2022-08-22T03:54:39.327Z,19.07
2022-08-22T03:55:41.935Z,20.91
2022-08-22T03:56:44.814Z,25.66
2022-08-22T03:57:47.375Z,20.83
2022-08-22T03:58:49.943Z,16.03
2022-08-22T03:59:52.520Z,29.11
2022-08-22T04:00:56.657Z,19.44
2022-08-22T04:01:59.630Z,31.84
2022-08-22T04:03:02.262Z,23.85
2022-08-22T04:04:04.930Z,20.95
2022-08-22T04:05:07.765Z,22.49
2022-08-22T04:06:13.542Z,19.63
2022-08-22T04:07:28.373Z,22.71
2022-08-22T04:08:25.613Z,15.71
2022-08-22T04:09:24.932Z,22.86
2022-08-22T04:10:28.933Z,15.22
2022-08-22T04:11:31.602Z,24.95
2022-08-22T04:12:34.267Z,19.00
2022-08-22T04:13:36.906Z,26.09
2022-08-22T04:14:39.507Z,22.17
2022-08-22T04:15:42.075Z,31.96
2022-08-22T04:16:45.284Z,26.41
2022-08-22T04:17:47.929Z,13.34
2022-08-22T04:18:50.591Z,19.53
2022-08-22T04:19:54.001Z,23.80
2022-08-22T04:20:56.954Z,21.40
2022-08-22T04:21:59.932Z,43.02
2022-08-22T04:23:02.917Z,16.96
2022-08-22T04:24:05.474Z,21.71
2022-08-22T04:25:08.553Z,18.33
2022-08-22T04:26:13.064Z,22.71
2022-08-22T04:27:15.644Z,15.77
2022-08-22T04:28:18.304Z,23.33
2022-08-22T04:29:20.974Z,16.33
2022-08-22T04:30:24.051Z,22.63
2022-08-22T04:31:26.722Z,11.67
2022-08-22T04:32:29.395Z,11.73
2022-08-22T04:33:31.990Z,17.69
2022-08-22T04:34:34.505Z,20.93
2022-08-22T04:35:37.048Z,16.41
2022-08-22T04:36:40.022Z,15.71
2022-08-22T04:37:42.707Z,14.29
2022-08-22T04:38:45.322Z,12.35
2022-08-22T04:39:47.894Z,14.11
2022-08-22T04:40:50.770Z,23.24
2022-08-22T04:41:53.672Z,10.76
2022-08-22T04:42:56.244Z,10.85
2022-08-22T04:43:59.071Z,16.16
2022-08-22T04:45:01.652Z,17.75
2022-08-22T04:46:04.499Z,18.99
2022-08-22T04:47:07.067Z,8.01
2022-08-22T04:48:09.631Z,18.74
2022-08-22T04:49:12.071Z,12.73
2022-08-22T04:50:15.379Z,19.45
2022-08-22T04:51:17.960Z,21.13
2022-08-22T04:52:20.630Z,10.97
2022-08-22T04:53:23.290Z,14.48
2022-08-22T04:54:26.159Z,10.49
2022-08-22T04:55:28.790Z,19.15
2022-08-22T04:56:32.013Z,25.66
2022-08-22T04:57:34.684Z,16.34
2022-08-22T04:58:37.413Z,13.95
2022-08-22T04:59:40.020Z,12.85
2022-08-22T05:00:42.953Z,18.92
2022-08-22T05:01:45.713Z,11.33
2022-08-22T05:02:48.639Z,15.04
2022-08-22T05:03:51.928Z,10.82
2022-08-22T05:04:54.715Z,16.23
2022-08-22T05:05:57.781Z,21.99
2022-08-22T05:07:00.556Z,13.50
2022-08-22T05:08:03.528Z,14.91
2022-08-22T05:09:06.099Z,13.21
2022-08-22T05:10:11.982Z,19.50
2022-08-22T05:11:13.993Z,11.48
2022-08-22T05:12:16.570Z,17.95
2022-08-22T05:13:19.227Z,14.81
2022-08-22T05:14:21.795Z,13.51
2022-08-22T05:15:24.329Z,17.03
2022-08-22T05:16:28.880Z,17.22
2022-08-22T05:17:31.552Z,13.31
2022-08-22T05:18:34.212Z,15.41
2022-08-22T05:19:36.784Z,8.64
2022-08-22T05:20:41.599Z,16.61
2022-08-22T05:21:44.171Z,14.40
2022-08-22T05:22:46.732Z,12.41
2022-08-22T05:23:49.396Z,13.30
2022-08-22T05:24:51.980Z,14.54
2022-08-22T05:25:54.632Z,10.33
2022-08-22T05:27:00.075Z,7.46
2022-08-22T05:28:02.694Z,8.41
2022-08-22T05:29:05.312Z,12.94
2022-08-22T05:30:08.799Z,16.12
2022-08-22T05:31:11.469Z,10.65
2022-08-22T05:32:14.088Z,10.60
2022-08-22T05:33:16.695Z,9.02
2022-08-22T05:34:19.264Z,17.28
2022-08-22T05:35:21.869Z,13.64
2022-08-22T05:36:25.184Z,14.83
2022-08-22T05:37:27.784Z,10.23
2022-08-22T05:38:30.351Z,13.09
2022-08-22T05:40:43.067Z,10.27
2022-08-22T05:41:45.744Z,16.34
2022-08-22T05:42:48.256Z,15.42
2022-08-22T05:43:50.829Z,10.11
2022-08-22T05:44:53.436Z,13.78
2022-08-22T05:45:56.113Z,16.18
2022-08-22T05:46:59.193Z,12.63
2022-08-22T05:48:01.853Z,10.63
2022-08-22T05:49:04.436Z,11.03
2022-08-22T05:50:07.492Z,11.55
2022-08-22T05:51:10.164Z,9.58
2022-08-22T05:52:12.731Z,15.02
2022-08-22T05:53:15.295Z,12.81
2022-08-22T05:54:18.177Z,16.26
2022-08-22T05:55:20.839Z,12.43
2022-08-22T05:56:24.081Z,15.13
2022-08-22T05:57:28.332Z,17.95
2022-08-22T05:58:30.900Z,13.87
2022-08-22T05:59:33.565Z,15.75
2022-08-22T06:00:36.605Z,19.16
2022-08-22T06:01:39.661Z,6.44
2022-08-22T06:02:42.614Z,10.43
2022-08-22T06:03:45.377Z,22.17
2022-08-22T06:04:49.780Z,14.08
2022-08-22T06:05:52.348Z,11.29
2022-08-22T06:06:55.120Z,17.89
2022-08-22T06:07:57.839Z,12.99
2022-08-22T06:09:00.767Z,9.28
2022-08-22T06:10:03.700Z,17.24
2022-08-22T06:11:06.320Z,12.30
2022-08-22T06:12:09.672Z,11.23
2022-08-22T06:13:13.492Z,20.85
2022-08-22T06:14:15.946Z,11.53
2022-08-22T06:15:20.947Z,12.41
2022-08-22T06:16:24.635Z,13.59
2022-08-22T06:17:27.239Z,20.19
2022-08-22T06:18:29.812Z,8.41
2022-08-22T06:19:32.399Z,12.23
2022-08-22T06:20:35.661Z,18.71
2022-08-22T06:21:39.612Z,12.43
2022-08-22T06:22:43.147Z,9.79
2022-08-22T06:23:46.086Z,13.27
2022-08-22T06:24:48.684Z,11.12
2022-08-22T06:25:51.312Z,9.05
2022-08-22T06:26:54.023Z,15.97
2022-08-22T06:27:56.599Z,9.87
2022-08-22T06:28:59.261Z,11.95
2022-08-22T06:30:03.099Z,14.03
2022-08-22T06:31:06.338Z,17.47
2022-08-22T07:04:57.670Z,18.53
2022-08-22T07:06:00.331Z,9.43
2022-08-22T07:07:02.898Z,11.13
2022-08-22T07:08:05.525Z,7.17
2022-08-22T07:09:08.135Z,11.59
2022-08-22T07:10:11.520Z,8.97
2022-08-22T07:11:14.046Z,13.75
2022-08-22T07:12:16.656Z,12.72
2022-08-22T07:13:19.347Z,8.41
2022-08-22T07:14:21.951Z,6.51
2022-08-22T07:15:24.517Z,8.42
2022-08-22T07:16:27.637Z,6.32
2022-08-22T07:17:30.212Z,11.02
2022-08-22T07:18:32.877Z,9.95
2022-08-22T07:19:35.440Z,3.73
2022-08-22T07:20:38.499Z,7.56
2022-08-22T07:21:41.188Z,12.63
2022-08-22T07:22:44.164Z,11.38
2022-08-22T07:23:46.788Z,9.29
2022-08-22T07:24:49.914Z,9.18
2022-08-22T07:25:52.891Z,6.91
2022-08-22T07:26:56.074Z,11.09
2022-08-22T07:27:58.719Z,4.51
2022-08-22T07:29:01.723Z,6.09
2022-08-22T07:30:06.495Z,6.51
2022-08-22T07:31:11.054Z,11.14
2022-08-22T07:32:13.720Z,10.29
2022-08-22T07:33:26.414Z,11.42
2022-08-22T07:34:21.108Z,9.93
2022-08-22T07:35:23.675Z,12.59
2022-08-22T07:36:31.489Z,8.28
2022-08-22T07:37:31.678Z,13.33
2022-08-22T07:38:34.344Z,4.49
2022-08-22T07:39:37.026Z,8.65
2022-08-22T07:40:40.303Z,9.63
2022-08-22T07:41:43.029Z,12.40
2022-08-22T07:42:46.119Z,12.32
2022-08-22T07:43:50.461Z,8.89
2022-08-22T07:44:53.023Z,21.16
2022-08-22T07:45:55.587Z,7.71
2022-08-22T07:46:58.466Z,7.91
2022-08-22T07:48:01.376Z,8.62
2022-08-22T07:49:09.570Z,17.09
2022-08-22T07:50:09.189Z,3.85
2022-08-22T07:51:11.807Z,9.92
2022-08-22T07:52:14.470Z,15.73
2022-08-22T07:53:17.036Z,12.44
2022-08-22T07:54:19.566Z,19.86
2022-08-22T07:55:22.171Z,5.54
2022-08-22T07:56:25.252Z,15.49
2022-08-22T07:57:27.949Z,10.27
2022-08-22T07:58:30.496Z,8.56
2022-08-22T07:59:33.156Z,10.52
2022-08-22T08:00:36.541Z,10.09
2022-08-22T08:01:39.243Z,12.87
2022-08-22T08:02:42.193Z,11.10
2022-08-22T08:03:44.814Z,6.76
2022-08-22T08:04:47.420Z,4.53
2022-08-22T08:05:50.067Z,11.32
2022-08-22T08:06:52.877Z,5.12
2022-08-22T08:07:55.696Z,5.71
2022-08-22T08:08:58.517Z,8.36
2022-08-22T08:10:01.187Z,10.59
2022-08-22T08:11:03.748Z,8.26
2022-08-22T08:12:06.375Z,16.58
2022-08-22T08:13:08.969Z,17.64
2022-08-22T08:14:13.647Z,8.09
2022-08-22T08:15:16.279Z,9.55
2022-08-22T08:16:20.680Z,30.04
2022-08-22T08:17:23.376Z,11.52
2022-08-22T08:18:26.022Z,6.86
2022-08-22T08:19:28.692Z,3.31
2022-08-22T08:20:31.886Z,11.00
2022-08-22T08:21:34.840Z,16.31
2022-08-22T08:22:37.775Z,11.23
2022-08-22T08:23:40.792Z,9.23
2022-08-22T08:24:44.798Z,10.39
2022-08-22T08:25:47.873Z,11.93
2022-08-22T08:26:52.484Z,5.73
2022-08-22T08:27:55.051Z,14.99
2022-08-22T08:28:57.928Z,8.30
2022-08-22T08:30:00.495Z,7.27
2022-08-22T08:31:03.021Z,12.53
2022-08-22T08:32:05.628Z,15.89
2022-08-22T08:33:25.674Z,11.43
2022-08-22T08:34:12.709Z,12.62
2022-08-22T08:35:15.271Z,6.25
2022-08-22T08:36:20.362Z,7.93
2022-08-22T08:37:22.990Z,11.61
2022-08-22T08:38:25.840Z,7.91
2022-08-22T08:39:28.608Z,6.27
2022-08-22T08:40:34.663Z,9.21
2022-08-22T08:41:37.637Z,11.35
2022-08-22T08:42:40.512Z,6.22
2022-08-22T08:43:43.184Z,8.14
2022-08-22T08:44:45.752Z,5.81
2022-08-22T08:45:48.519Z,11.77
2022-08-22T08:46:55.215Z,6.04
2022-08-22T08:47:56.631Z,7.20
2022-08-22T08:48:59.604Z,7.24
2022-08-22T08:50:03.598Z,9.07
2022-08-22T08:51:06.172Z,9.28
2022-08-22T08:52:09.188Z,11.34
2022-08-22T08:53:11.748Z,4.05
2022-08-22T08:54:14.396Z,5.87
2022-08-22T08:55:21.939Z,6.12
2022-08-22T08:56:25.354Z,8.38
2022-08-22T08:57:28.121Z,11.86
2022-08-22T08:58:31.927Z,9.03
2022-08-22T08:59:34.616Z,7.03
2022-08-22T09:00:39.405Z,4.93
2022-08-22T09:01:42.000Z,7.64
2022-08-22T09:02:45.026Z,7.20
2022-08-22T09:03:48.949Z,3.98
2022-08-22T09:04:53.359Z,19.24
2022-08-22T09:05:55.888Z,10.06
2022-08-22T09:07:01.050Z,16.51
2022-08-22T09:08:03.315Z,11.86
2022-08-22T09:09:07.784Z,5.48
2022-08-22T09:10:11.827Z,4.59
2022-08-22T09:11:15.927Z,9.49
2022-08-22T09:12:19.186Z,10.68
2022-08-22T09:13:22.192Z,7.02
2022-08-22T09:14:26.227Z,11.15
2022-08-22T09:15:29.371Z,5.86
2022-08-22T09:16:34.192Z,5.41
2022-08-22T09:17:38.658Z,7.26
2022-08-22T09:18:41.223Z,15.02
2022-08-22T09:19:43.873Z,8.44
2022-08-22T09:20:47.628Z,8.09
2022-08-22T09:21:50.870Z,7.56
2022-08-22T09:22:53.587Z,9.74
2022-08-22T09:23:56.252Z,7.14
2022-08-22T09:24:58.818Z,5.34
2022-08-22T09:26:01.388Z,6.46
2022-08-22T09:27:04.060Z,7.17
2022-08-22T09:28:08.567Z,5.52
2022-08-22T09:29:11.135Z,5.23
2022-08-22T09:30:14.416Z,5.18
2022-08-22T09:31:32.690Z,6.87
2022-08-22T09:32:21.700Z,7.31
2022-08-22T09:33:28.256Z,6.28
2022-08-22T09:34:30.524Z,7.29
2022-08-22T09:35:33.045Z,8.49
2022-08-22T09:36:35.963Z,7.76
2022-08-22T09:37:38.837Z,10.01
2022-08-22T09:38:47.691Z,11.07
2022-08-22T09:39:46.148Z,4.08
2022-08-22T09:40:50.872Z,5.03
2022-08-22T09:41:53.468Z,3.80
2022-08-22T09:42:58.380Z,5.05
2022-08-22T09:44:01.703Z,7.83
2022-08-22T09:45:05.617Z,8.29
2022-08-22T09:46:10.080Z,10.65
2022-08-22T09:47:12.791Z,21.00
2022-08-22T09:48:16.032Z,8.58
2022-08-22T09:49:18.704Z,6.18
2022-08-22T09:50:22.260Z,3.42
2022-08-22T09:51:33.314Z,5.24
2022-08-22T09:52:34.009Z,12.66
2022-08-22T09:53:34.351Z,8.42
2022-08-22T09:54:37.315Z,3.65
2022-08-22T09:55:41.838Z,6.06
2022-08-22T09:56:44.861Z,3.21
2022-08-22T09:57:47.780Z,8.39
2022-08-22T09:58:50.346Z,6.62
2022-08-22T09:59:52.818Z,67.47
2022-08-22T10:00:55.893Z,10.13
2022-08-22T10:01:58.724Z,8.89
2022-08-22T10:03:02.137Z,25.51
2022-08-22T10:04:05.142Z,9.76
2022-08-22T10:05:08.615Z,4.22
2022-08-22T10:06:11.856Z,7.71
2022-08-22T10:07:14.670Z,9.47
2022-08-22T10:08:19.855Z,6.29
2022-08-22T10:09:25.241Z,4.65
2022-08-22T10:10:27.148Z,11.76
2022-08-22T10:11:29.760Z,8.80
2022-08-22T10:12:36.417Z,12.47
2022-08-22T10:13:37.196Z,6.88
2022-08-22T10:14:40.011Z,6.80
2022-08-22T10:15:43.310Z,10.26
2022-08-22T10:16:46.230Z,9.39
2022-08-22T10:17:50.203Z,22.52
2022-08-22T10:18:55.363Z,10.19
2022-08-22T10:19:57.966Z,15.27
2022-08-22T10:21:00.910Z,11.11
2022-08-22T10:22:03.875Z,6.12
2022-08-22T10:23:07.231Z,7.61
2022-08-22T10:24:10.491Z,6.25
2022-08-22T10:25:14.032Z,5.75
2022-08-22T10:26:22.891Z,4.59
2022-08-22T10:27:21.843Z,7.52
2022-08-22T10:28:28.529Z,7.62
2022-08-22T10:29:29.874Z,10.22
2022-08-22T10:30:33.059Z,17.36
2022-08-22T10:31:57.094Z,10.80
2022-08-22T10:32:41.363Z,10.53
2022-08-22T10:33:45.835Z,4.98
2022-08-22T10:34:50.085Z,5.18
2022-08-22T10:35:52.708Z,9.61
2022-08-22T10:36:55.731Z,5.86
2022-08-22T10:37:59.011Z,7.58
2022-08-22T10:39:04.414Z,5.62
2022-08-22T10:40:06.386Z,10.92
2022-08-22T10:41:09.648Z,4.85
2022-08-22T10:42:12.764Z,7.79
2022-08-22T10:43:16.387Z,10.01
2022-08-22T10:44:19.942Z,4.01
2022-08-22T10:45:35.077Z,2.69
2022-08-22T10:46:27.126Z,6.12
2022-08-22T10:47:29.656Z,5.23
2022-08-22T10:48:32.243Z,16.00
2022-08-22T10:49:34.827Z,2.57
2022-08-22T10:50:37.805Z,7.09
2022-08-22T10:51:40.374Z,10.97
2022-08-22T10:52:43.043Z,8.08
2022-08-22T10:53:45.611Z,6.01
2022-08-22T10:54:48.275Z,7.49
2022-08-22T10:55:51.763Z,7.23
2022-08-22T10:56:55.256Z,10.64
2022-08-22T10:57:58.128Z,8.72
2022-08-22T10:59:01.000Z,4.59
2022-08-22T11:00:03.970Z,2.49
2022-08-22T11:01:37.926Z,5.57
2022-08-22T11:02:12.082Z,3.44
2022-08-22T11:03:19.969Z,5.03
2022-08-22T11:04:19.579Z,6.34
2022-08-22T11:05:24.046Z,3.26
2022-08-22T11:06:27.667Z,6.44
2022-08-22T11:07:31.567Z,5.01
2022-08-22T11:08:35.932Z,5.09
2022-08-22T11:09:38.499Z,10.41
2022-08-22T11:10:41.426Z,6.54
2022-08-22T11:11:44.352Z,5.51
2022-08-22T11:12:46.964Z,11.11
2022-08-22T11:13:49.727Z,7.51
2022-08-22T11:14:52.373Z,3.86
2022-08-22T11:15:54.883Z,3.54
2022-08-22T11:16:57.736Z,10.95
2022-08-22T11:18:00.265Z,3.03
2022-08-22T11:19:14.585Z,5.69
2022-08-22T11:20:07.808Z,6.65
2022-08-22T11:21:11.807Z,11.65
2022-08-22T11:22:14.374Z,12.97
2022-08-22T11:23:17.031Z,5.99
2022-08-22T11:24:34.619Z,7.71
2022-08-22T11:25:35.828Z,12.41
2022-08-22T11:26:33.530Z,7.94
2022-08-22T11:27:39.513Z,6.66
2022-08-22T11:28:38.834Z,8.46
2022-08-22T11:29:43.556Z,5.39
2022-08-22T11:30:46.530Z,9.89
2022-08-22T11:31:51.524Z,8.42
2022-08-22T11:32:58.889Z,3.62
2022-08-22T11:33:59.509Z,8.30
2022-08-22T11:35:03.083Z,8.56
2022-08-22T11:36:07.805Z,5.02
2022-08-22T11:37:11.571Z,2.28
2022-08-22T11:38:15.190Z,5.06
2022-08-22T11:39:18.607Z,4.92
2022-08-22T11:40:22.338Z,9.82
2022-08-22T11:41:26.992Z,4.07
2022-08-22T11:42:30.064Z,4.31
2022-08-22T11:43:32.784Z,5.03
2022-08-22T11:44:43.036Z,7.26
2022-08-22T11:45:39.886Z,5.19
2022-08-22T11:46:43.213Z,4.85
2022-08-22T11:47:46.177Z,10.48
2022-08-22T11:48:48.841Z,3.69
2022-08-22T11:49:51.516Z,5.71
2022-08-22T11:50:54.453Z,7.21
2022-08-22T11:51:57.019Z,5.74
2022-08-22T11:53:01.522Z,4.26
2022-08-22T11:54:05.164Z,7.50
2022-08-22T11:55:07.689Z,4.90
2022-08-22T11:56:10.913Z,7.81
2022-08-22T11:57:13.480Z,6.87
2022-08-22T11:58:15.971Z,6.43
2022-08-22T11:59:18.511Z,9.65
2022-08-22T12:00:23.499Z,10.44
2022-08-22T12:01:26.411Z,5.72
2022-08-22T12:02:31.269Z,9.24
2022-08-22T12:03:34.008Z,9.32
2022-08-22T12:04:38.411Z,8.98
2022-08-22T12:05:42.924Z,8.81
2022-08-22T12:06:46.856Z,5.96
2022-08-22T12:07:51.177Z,8.49
2022-08-22T12:08:54.178Z,2.39
2022-08-22T12:09:56.776Z,9.32
2022-08-22T12:10:59.652Z,4.83
2022-08-22T12:12:02.228Z,10.65
2022-08-22T12:13:06.749Z,5.59
2022-08-22T12:14:09.296Z,8.77
2022-08-22T12:15:11.960Z,7.90
2022-08-22T12:16:16.371Z,3.76
2022-08-22T12:17:50.625Z,6.28
2022-08-22T12:18:23.304Z,9.83
2022-08-22T12:19:27.759Z,8.66
2022-08-22T12:20:34.014Z,5.70
2022-08-22T12:21:38.459Z,5.16
2022-08-22T12:22:44.392Z,8.96
2022-08-22T12:23:49.768Z,9.05
2022-08-22T12:24:50.735Z,7.98
2022-08-22T12:25:53.912Z,7.25
2022-08-22T12:26:56.844Z,6.76
2022-08-22T12:27:59.413Z,5.39
2022-08-22T12:29:02.329Z,5.14
2022-08-22T12:30:05.220Z,4.20
2022-08-22T12:31:09.776Z,12.59
2022-08-22T12:32:12.653Z,8.04
2022-08-22T12:33:21.954Z,7.61
2022-08-22T12:34:21.611Z,6.36
2022-08-22T12:35:29.879Z,3.93
2022-08-22T12:36:28.796Z,5.32
2022-08-22T12:37:31.319Z,11.08
2022-08-22T12:38:37.969Z,6.85
2022-08-22T12:39:41.206Z,5.45
2022-08-22T12:40:44.296Z,4.26
2022-08-22T12:41:48.277Z,6.89
2022-08-22T12:42:51.364Z,8.96
2022-08-22T12:43:54.648Z,3.34
2022-08-22T12:44:57.323Z,7.13
2022-08-22T12:46:01.522Z,7.29
2022-08-22T12:47:04.352Z,4.48
2022-08-22T12:48:07.168Z,7.89
2022-08-22T12:49:10.348Z,8.04
2022-08-22T12:50:14.045Z,8.96
2022-08-22T12:51:17.415Z,7.07
2022-08-22T12:52:20.717Z,6.76
2022-08-22T12:53:24.205Z,5.46
2022-08-22T12:54:26.869Z,12.09
2022-08-22T12:55:29.845Z,7.36
2022-08-22T12:56:32.519Z,10.65
2022-08-22T12:57:36.111Z,5.42
2022-08-22T12:58:40.316Z,13.54
2022-08-22T12:59:42.837Z,4.95
2022-08-22T13:00:46.083Z,8.89
2022-08-22T13:01:49.626Z,15.61
2022-08-22T13:02:53.240Z,8.16
2022-08-22T13:03:55.912Z,9.37
2022-08-22T13:04:58.486Z,12.23
2022-08-22T13:06:01.456Z,8.64
2022-08-22T13:07:04.432Z,3.30
2022-08-22T13:08:09.196Z,9.98
2022-08-22T13:09:12.489Z,5.61
2022-08-22T13:10:17.534Z,8.48
2022-08-22T13:11:23.177Z,3.56
2022-08-22T13:12:24.810Z,9.11
2022-08-22T13:13:31.597Z,11.37
2022-08-22T13:14:31.983Z,11.70
2022-08-22T13:15:36.065Z,8.01
2022-08-22T13:16:39.163Z,7.62
2022-08-22T13:17:43.718Z,4.58
2022-08-22T13:18:46.488Z,9.16
2022-08-22T13:19:49.159Z,9.23
2022-08-22T13:20:53.534Z,8.28
2022-08-22T13:21:56.139Z,8.40
2022-08-22T13:22:59.931Z,8.31
2022-08-22T13:24:04.404Z,7.16
2022-08-22T13:25:08.632Z,5.11
2022-08-22T13:26:12.651Z,8.58
2022-08-22T13:27:17.061Z,10.01
2022-08-22T13:28:21.429Z,4.02
2022-08-22T13:29:26.551Z,7.57
2022-08-22T13:30:30.867Z,4.50
2022-08-22T13:31:34.250Z,10.18
2022-08-22T13:32:36.742Z,8.08
2022-08-22T13:33:40.965Z,8.70
2022-08-22T13:34:43.898Z,10.86
2022-08-22T13:35:52.099Z,9.39
2022-08-22T13:36:52.189Z,7.75
2022-08-22T13:37:55.137Z,8.84
2022-08-22T13:38:58.612Z,8.88
2022-08-22T13:40:01.972Z,6.22
2022-08-22T13:41:04.664Z,4.91
2022-08-22T13:42:14.567Z,10.78
2022-08-22T13:43:12.667Z,6.60
2022-08-22T13:44:15.383Z,10.51
2022-08-22T13:45:18.014Z,8.65
2022-08-22T13:46:21.591Z,5.84
2022-08-22T13:47:24.160Z,9.05
2022-08-22T13:48:28.349Z,12.07
2022-08-22T13:49:31.443Z,7.02
2022-08-22T13:50:37.056Z,12.14
2022-08-22T13:51:40.158Z,10.65
2022-08-22T13:52:42.683Z,9.78
2022-08-22T13:53:48.986Z,11.34
2022-08-22T13:54:51.550Z,12.55
2022-08-22T13:55:54.221Z,7.58
2022-08-22T13:56:57.807Z,6.93
2022-08-22T13:58:00.680Z,9.21
2022-08-22T13:59:03.204Z,9.83
2022-08-22T14:00:06.704Z,11.87
2022-08-22T14:01:10.534Z,5.46
2022-08-22T14:02:17.856Z,8.39
2022-08-22T14:03:17.924Z,13.29
2022-08-22T14:04:31.990Z,6.78
2022-08-22T14:05:25.020Z,7.79
2022-08-22T14:06:36.995Z,10.92
2022-08-22T14:07:32.805Z,10.30
2022-08-22T14:08:36.036Z,10.26
2022-08-22T14:09:38.603Z,13.34